Armstrong, Texas
Current Conditions -  °F | °C
As of 12:55 PM on Friday 21 Nov 2014 (Local Time) from KBKS Reporting Station
Overcast Overcast  
Wind Chill: 77°   Ceiling: 2100
Heat Index: 79°   Visibility: 10mi
Dew Point: 68°   Wind: 18mph
Humidity: 73%   Direction: 140°SE
Pressure: 30.01"   Gusts: 24mph
Location:  26.92°N, 97.79°W
Report Text: KBKS 211855Z AUTO 14016G21KT 10SM BKN021 OVC030 25/20 A3001 RMK AO1 T02500199
Loading
Personal Weather Stations






























Interactive Weather Map New forecast layout! Learn more

10-Day Weather Forecast

Advertisements
Track Severe Weather on mobile